Flight Track Log - Related Links

Times and Time Zones

All times are in EDT time to prevent confusion due to time zone crossing. See the JBU1098 flight status page for this flight to view local times or setup timezone preferences in your user account.

Time Position Orientation Groundspeed Altitude Reporting Facility
EDT Latitude Longitude Course Direction KTS MPH feet Rate Location/Type
Sat 06:25:00 AM 19.6842 -70.5218 327° Northwest  Level FlightAware Approximate
Sat 06:26:00 AM 19.7566 -70.5721 322° Northwest  Level FlightAware Approximate
Sat 06:27:00 AM 19.8251 -70.6283 322° Northwest  Level FlightAware Approximate
Sat 06:28:00 AM 19.8936 -70.6846 322° Northwest  Level FlightAware Approximate
Sat 06:29:00 AM 19.9621 -70.7410 322° Northwest  Level FlightAware Approximate
Sat 06:30:00 AM 20.0305 -70.7973 322° Northwest  Level FlightAware Approximate
Sat 06:31:00 AM 20.0989 -70.8538 322° Northwest  Level FlightAware Approximate
Sat 06:31:09 AM 20.0239 -70.9258 306° West 437 503 33,000  Level Miami Center
Sat 06:32:00 AM 20.1674 -70.9103 322° Northwest  Level FlightAware Approximate
Sat 06:32:09 AM 20.1000 -71.0153 312° West 432 497 34,400  Level Miami Center
Sat 06:33:00 AM 20.2358 -70.9668 322° Northwest  Level FlightAware Approximate
Sat 06:34:00 AM 20.2984 -71.0575 306° West  Level Estimated
Sat 06:34:09 AM 20.2464 -71.1947 311° West 408 470 36,000  Level Miami Center
Sat 06:35:00 AM 20.3610 -71.1483 306° West  Level Estimated
Sat 06:36:00 AM 20.4236 -71.2391 306° West  Level Estimated
Sat 06:36:00 AM 20.3469 -71.3257 309° West  Level FlightAware Approximate
Sat 06:43:00 AM 20.7360 -71.8148 311° West  Level FlightAware Approximate
Sat 06:44:00 AM 20.7917 -71.8845 311° West  Level FlightAware Approximate
Sat 06:45:00 AM 20.8474 -71.9543 310° West  Level FlightAware Approximate
Sat 06:46:00 AM 20.9031 -72.0242 310° West  Level FlightAware Approximate
Sat 06:47:00 AM 20.9588 -72.0941 310° West  Level FlightAware Approximate
Sat 06:48:00 AM 21.0144 -72.1641 310° West  Level FlightAware Approximate
Sat 06:49:00 AM 21.0700 -72.2341 310° West  Level FlightAware Approximate
Sat 06:50:00 AM 21.1255 -72.3042 310° West  Level FlightAware Approximate
Sat 06:50:09 AM 21.4061 -72.6389 310° West 407 468 36,000  Level Miami Center
Sat 06:51:00 AM 21.1811 -72.3743 310° West  Level FlightAware Approximate
Sat 06:51:09 AM 21.4797 -72.7303 311° West 407 468 36,000  Level Miami Center
Sat 06:52:00 AM 21.2366 -72.4445 310° West  Level FlightAware Approximate
Sat 06:53:00 AM 21.2920 -72.5148 310° West  Level FlightAware Approximate
Sat 06:53:09 AM 21.6308 -72.9219 310° West 407 468 36,000  Level Miami Center
Sat 06:54:00 AM 21.3475 -72.5851 310° West  Level FlightAware Approximate
Sat 06:55:00 AM 21.4029 -72.6554 310° West  Level FlightAware Approximate
Sat 06:55:00 AM 21.7225 -73.0614 305° West  Level Estimated
Sat 06:56:09 AM 21.8528 -73.2017 305° West 413 475 36,000  Level Miami Center
Sat 06:57:09 AM 21.9258 -73.2958 310° West 413 475 36,000  Level Miami Center
Sat 06:59:09 AM 22.0681 -73.4847 309° West 413 475 36,000  Level Miami Center
Sat 07:01:00 AM 22.1694 -73.6166 310° West  Level FlightAware Approximate
Sat 07:05:09 AM 22.4950 -74.0378 309° West 408 470 36,000  Level Miami Center
Sat 07:07:00 AM 22.5835 -74.1804 304° West  Level Estimated
Sat 07:08:00 AM 22.5517 -74.1174 310° West  Level FlightAware Approximate
Sat 07:09:00 AM 22.6062 -74.1892 309° West  Level FlightAware Approximate
Sat 07:09:09 AM 22.7814 -74.4100 304° West 408 470 36,000  Level Miami Center
Sat 07:10:00 AM 22.6607 -74.2610 309° West  Level FlightAware Approximate
Sat 07:11:09 AM 22.9242 -74.5967 310° West 408 470 36,000  Level Miami Center
Sat 07:13:00 AM 23.0225 -74.7320 308° West  Level FlightAware Approximate
Sat 07:14:00 AM 22.9173 -74.7218 304° West  Level Estimated
Sat 07:14:09 AM 23.1414 -74.8797 308° West 408 470 36,000  Level Miami Center
Sat 07:15:09 AM 23.2136 -74.9736 310° West 408 470 36,000  Level Miami Center
Sat 07:16:09 AM 23.2858 -75.0675 310° West 408 470 36,000  Level Miami Center
Sat 07:17:09 AM 23.3578 -75.1617 310° West 408 470 36,000  Level Miami Center
Sat 07:18:09 AM 23.4300 -75.2556 310° West 413 475 36,000  Level Miami Center
Sat 07:19:09 AM 23.5000 -75.3522 308° West 413 475 36,000  Level Miami Center
Sat 07:20:09 AM 23.5719 -75.4442 310° West 413 475 36,000  Level Miami Center
Sat 07:21:09 AM 23.6458 -75.5433 309° West 413 475 36,000  Level Miami Center
Sat 07:22:09 AM 23.7178 -75.6378 310° West 413 475 36,000  Level Miami Center
Sat 07:23:09 AM 23.7875 -75.7347 308° West 413 475 36,000  Level Miami Center
Sat 07:24:09 AM 23.8592 -75.8294 310° West 413 475 36,000  Level Miami Center
Sat 07:25:09 AM 23.9289 -75.9244 309° West 413 475 36,000  Level Miami Center
Sat 07:26:09 AM 23.9983 -76.0194 309° West 413 475 36,000  Level Miami Center
Sat 07:27:09 AM 24.0678 -76.1147 309° West 413 475 36,000  Level Miami Center
Sat 07:28:09 AM 24.1372 -76.2097 309° West 413 475 36,000  Level Miami Center
Sat 07:29:09 AM 24.2067 -76.3053 309° West 413 475 36,000  Level Miami Center
Sat 07:30:09 AM 24.2758 -76.4006 309° West 413 475 36,000  Level Miami Center
Sat 07:31:09 AM 24.3472 -76.4961 309° West 413 475 36,000  Level Miami Center
Sat 07:32:09 AM 24.4186 -76.5894 310° West 413 475 36,000  Level Miami Center
Sat 07:33:09 AM 24.4772 -76.6739 307° West 406 467 36,000  Level Miami Center
Sat 07:34:09 AM 24.5461 -76.7675 309° West 396 456 36,000  Level Miami Center
Sat 07:35:09 AM 24.6172 -76.8633 309° West 396 456 36,000  Level Miami Center
Sat 07:36:09 AM 24.6864 -76.9594 308° West 396 456 36,000  Level Miami Center
Sat 07:37:09 AM 24.7550 -77.0533 309° West 396 456 36,000  Level Miami Center
Sat 07:38:09 AM 24.8239 -77.1497 308° West 396 456 36,000  Level Miami Center
Sat 07:39:09 AM 24.8928 -77.2436 309° West 396 456 36,000  Level Miami Center
Sat 07:40:09 AM 24.9594 -77.3356 309° West 396 456 36,000  Level Miami Center
Sat 07:41:09 AM 25.0425 -77.4483 309° West 406 467 36,000  Level Miami Center
Sat 07:42:09 AM 25.1028 -77.5311 309° West 412 474 36,000  Level Miami Center
Sat 07:43:09 AM 25.1858 -77.6511 307° West 418 481 36,000  Level Miami Center
Sat 07:44:09 AM 25.2542 -77.7458 309° West 412 474 36,000  Level Miami Center
Sat 07:45:09 AM 25.3247 -77.8450 308° West 412 474 36,000  Level Miami Center
Sat 07:46:09 AM 25.3931 -77.9422 308° West 412 474 36,000 -200 Level Miami Center
Sat 07:47:09 AM 25.4633 -78.0419 308° West 412 474 35,600 -1,300 Descending Miami Center
Sat 07:48:09 AM 25.5333 -78.1392 309° West 412 474 33,400 -2,250 Descending Miami Center
Sat 07:49:09 AM 25.5994 -78.2461 304° West 412 474 31,100 -2,300 Descending Miami Center
Sat 07:50:09 AM 25.6253 -78.3731 283° West 411 473 28,800 -2,300 Descending Miami Center
Sat 07:51:09 AM 25.6469 -78.4978 281° West 411 473 26,500 -2,300 Descending Miami Center
Sat 07:52:09 AM 25.6706 -78.6158 283° West 411 473 24,200 -2,300 Descending Miami Center
Sat 07:53:09 AM 25.6942 -78.7336 283° West 405 466 21,900 -2,350 Descending Miami Center
Sat 07:54:09 AM 25.7136 -78.8517 280° West 400 460 19,500 -2,200 Descending Miami Center
Sat 07:55:09 AM 25.7369 -78.9697 282° West 395 455 17,500 -2,150 Descending Miami Center
Sat 07:56:09 AM 25.7542 -79.0806 280° West 389 448 15,200 -2,100 Descending Miami Center
Sat 07:57:09 AM 25.7756 -79.1894 282° West 376 433 13,300 -1,750 Descending Miami Center
Sat 07:58:09 AM 25.7886 -79.2844 279° West 359 413 11,700 -1,750 Descending Miami Center
Sat 07:59:09 AM 25.8075 -79.4000 280° West 352 405 9,800 -1,806 Descending Miami Center
Sat 07:59:52 AM 25.8189 -79.4719 280° West 327 376 8,600 -1,500 Descending Miami Center
Sat 08:00:09 AM 25.8247 -79.4906 289° West 342 394 8,300 -1,444 Descending Miami Center
Sat 08:00:46 AM 25.8339 -79.5578 279° West 303 349 7,300 -1,600 Descending Miami Center
Sat 08:01:09 AM 25.8458 -79.5925 291° West 329 379 6,700 -1,180 Descending Miami Center
Sat 08:01:47 AM 25.8492 -79.6433 274° West 280 322 6,100 -700 Descending Miami Center
Sat 08:02:09 AM 25.8672 -79.6739 303° West 299 344 6,000  Descending Miami Center
Sat 08:02:42 AM 25.8811 -79.7111 293° West 268 308 6,100  Climbing Miami Center
Sat 08:03:09 AM 25.8994 -79.7461 300° West 281 323 6,000  Descending Miami Center
Sat 08:03:43 AM 25.9131 -79.7881 290° West 270 311 6,100  Climbing Miami Center
Sat 08:04:09 AM 25.9292 -79.8208 299° West 270 311 6,000  Descending Miami Center
Sat 08:04:44 AM 25.9511 -79.8700 296° West 272 313 6,100  Climbing Miami Center
Sat 08:05:09 AM 25.9672 -79.8981 303° West 270 311 6,000 -537 Descending Miami Center
Sat 08:05:51 AM 25.9831 -79.9492 289° West 272 313 5,500 -900 Descending Miami Center
Sat 08:06:09 AM 25.9908 -79.9750 289° West 270 311 5,100 -1,418 Descending Miami Center
Sat 08:06:46 AM 25.9897 -80.0281 269° West 266 306 4,200 -1,200 Descending Miami Center
Sat 08:07:09 AM 25.9953 -80.0558 283° West 270 311 3,900 -1,082 Descending Miami Center
Sat 08:07:47 AM 25.9942 -80.1067 269° West 262 302 3,100 -900 Descending Miami Center
Sat 08:08:09 AM 26.0019 -80.1300 290° West 270 311 3,000 -100 Descending Miami Center
Sat 08:08:47 AM 26.0028 -80.1925 271° West 266 306 3,000  Level Miami Center
Sat 08:09:09 AM 26.0064 -80.2111 282° West 270 311 3,000 98 Level Miami Center
Sat 08:09:48 AM 25.9989 -80.2617 261° West 206 237 3,100 -360 Climbing Miami Center
Sat 08:10:49 AM 26.0228 -80.3108 298° West 213 245 2,400 -492 Descending Miami Center
Sat 08:11:50 AM 26.0756 -80.2939 16° North 184 212 2,100 -519 Descending Miami Center
Sat 08:12:33 AM 26.0744 -80.2547 92° East 172 198 1,500 -709 Descending Miami Center
Sat 08:13:40 AM 26.0733 -80.2083 92° East 129 148 800 -627 Descending Miami Center
Sat 08:15:00 AM 26.0667 -80.1500 77° East  Level FlightAware Approximate

Login

Don't have an account? Register now (free) for customized features, flight alerts, and more!